Hlavní strana
METAR-TAF:

METAR-TAF

Letiště :

Macon, Georgie, Spojené státy americké

zeměpisná šířka: 32-41-16N, zeměpisná délka: 083-39-16W, výška: 107 m

Aktuální stav počasí

Zpráva byla vytvořena před 55 minutami, v 20:53 UTC
Severozápadní vítr 13 kt s nárazy do 22 kt
Teplota 10°C
Vlhkost vzduchu 34%
Tlak 1013 hPa
Viditelnost: 16.1 km
Jasno

METAR: KMCN 162053Z 31013G22KT 10SM CLR 10/M05 A2990 RMK AO2 SLP123 T01001050 53006

Čas: 16:48 (21:48 UTC)

Předpověď počasí

Zpráva byla vytvořena před 4 hodinami a 17 minutami, v 17:31 UTC
Předpověď platná od 16 v 18 UTC do 17 v 18 UTC
Západní vítr 15 kt s nárazy do 24 kt
Viditelnost: 10 km
Skoro jasno ve výšce 5000 ft
Od 16 v 2200 UTC
Západní vítr 10 kt
Viditelnost: 10 km
Skoro jasno ve výšce 5000 ft
Od 17 v 0100 UTC
Západní vítr 4 kt
Viditelnost: 10 km
Jasno

TAF: KMCN 161731Z 1618/1718 28015G24KT P6SM FEW050 FM162200 28010KT P6SM FEW050 FM170100 26004KT P6SM SKC

Stav a předpovědi počasí z více než 4 000 letišť (zprávy METAR a TAF).

Červené a žluté tečky na mapě představují dostupné meteorologické stanice.

Když kurzor umístíte na tečku, zobrazí se název stanice.

Pak kliknutím zobrazíte stav a předpověď počasí.

Chcete-li změnit mapu, kliknutím na zelené tlačítko se znaménkem +mapu přiblížíte, kliknutím na zelené tlačítko se znaménkem – mapu oddálíte a kliknutím na zelené šipky přejdete na sousední mapy.


METAR-TAF: